EW8311 Weather Reports


Display with metric or nautical units.
time (UTC)temp
F
wind
direction
speed
MPH
gust
MPH
rain 1hr
in
rain 24hr
in
rain mn
in
humidity
%
barometer
mb
20240226140051 66 105 0.0 0.0 0.00 0.00 0.00 34 1010.5
20240226134559 66 108 0.0 1.0 0.00 0.00 0.00 33 1010.7
20240226133048 67 120 0.0 3.0 0.00 0.00 0.00 35 1011.1
20240226131549 66 92 0.0 3.0 0.00 0.00 0.00 32 1011.7
20240226130046 66 110 1.0 4.0 0.00 0.00 0.00 35 1011.4
20240226124554 65 71 0.0 2.0 0.00 0.00 0.00 41 1012.2
20240226123045 66 105 0.0 2.0 0.00 0.00 0.00 35 1011.0
20240226121543 65 119 2.0 4.0 0.00 0.00 0.00 36 1010.6
20240226120042 65 23 0.0 1.0 0.00 0.00 0.00 40 1011.7
20240226114540 66 316 0.0 0.0 0.00 0.00 0.00 35 1012.4
20240226113045 67 316 0.0 0.0 0.00 0.00 0.00 28 1012.0
20240226111539 68 316 0.0 2.0 0.00 0.00 0.00 29 1011.8
20240226110038 69 330 4.0 8.0 0.00 0.00 0.00 27 1012.1
20240226104537 69 312 0.0 3.0 0.00 0.00 0.00 28 1011.6
20240226103039 68 333 2.0 4.0 0.00 0.00 0.00 29 1011.4
20240226101536 69 325 1.0 2.0 0.00 0.00 0.00 28 1011.5
20240226100035 69 324 2.0 4.0 0.00 0.00 0.00 28 1011.5
20240226094539 70 345 2.0 9.0 0.00 0.00 0.00 28 1011.6
20240226093028 68 328 2.0 4.0 0.00 0.00 0.00 31 1011.7
20240226091527 67 336 2.0 4.0 0.00 0.00 0.00 33 1011.8
20240226090024 67 316 0.0 2.0 0.00 0.00 0.00 37 1011.9
20240226084541 67 310 0.0 1.0 0.00 0.00 0.00 37 1012.0
20240226083022 67 345 0.0 1.0 0.00 0.00 0.00 34 1012.1
20240226081518 65 40 0.0 0.0 0.00 0.00 0.00 39 1012.3
20240226080016 66 41 0.0 0.0 0.00 0.00 0.00 41 1012.2
20240226074512 66 41 0.0 0.0 0.00 0.00 0.00 42 1012.5
20240226073020 65 41 0.0 0.0 0.00 0.00 0.00 47 1012.6
20240226071509 65 41 0.0 0.0 0.00 0.00 0.00 47 1012.7
20240226070007 65 41 0.0 0.0 0.00 0.00 0.00 47 1012.9
20240226064514 65 40 0.0 0.0 0.00 0.00 0.00 45 1012.7
20240226063005 65 115 0.0 0.0 0.00 0.00 0.00 48 1012.8
20240226061504 65 115 0.0 0.0 0.00 0.00 0.00 49 1013.0
20240226060003 65 115 0.0 0.0 0.00 0.00 0.00 46 1012.9
20240226054503 66 115 0.0 0.0 0.00 0.00 0.00 51 1012.9
20240226053002 66 115 0.0 0.0 0.00 0.00 0.00 50 1012.9
20240226051501 66 115 0.0 0.0 0.00 0.00 0.00 45 1012.9
20240226050002 66 115 0.0 0.0 0.00 0.00 0.00 44 1012.8
20240226044501 67 115 0.0 0.0 0.00 0.00 0.00 46 1013.0
20240226043101 68 115 0.0 0.0 0.00 0.00 0.00 44 1012.8
20240226041604 68 115 0.0 0.0 0.00 0.00 0.00 40 1012.7
20240226040058 69 115 0.0 1.0 0.00 0.00 0.00 39 1012.6
20240226034604 70 115 0.0 2.0 0.00 0.00 0.00 37 1012.7
20240226033057 70 108 0.0 1.0 0.00 0.00 0.00 37 1012.7
20240226031557 71 113 0.0 2.0 0.00 0.00 0.00 35 1012.6
20240226030057 71 109 1.0 2.0 0.00 0.00 0.00 35 1012.4
20240226024556 71 104 0.0 1.0 0.00 0.00 0.00 34 1012.3
20240226023056 72 106 1.0 3.0 0.00 0.00 0.00 32 1012.1
20240226021555 72 115 0.0 1.0 0.00 0.00 0.00 32 1012.0
20240226020054 73 127 1.0 3.0 0.00 0.00 0.00 29 1011.6
20240226014555 74 321 0.0 4.0 0.00 0.00 0.00 27 1011.4
20240226013054 74 297 1.0 3.0 0.00 0.00 0.00 28 1011.4
20240226011553 75 338 1.0 4.0 0.00 0.00 0.00 27 1011.3
20240226010054 76 312 1.0 4.0 0.00 0.00 0.00 26 1011.0
20240226004611 77 342 2.0 5.0 0.00 0.00 0.00 25 1011.2
20240226003054 77 307 2.0 6.0 0.00 0.00 0.00 24 1010.9
20240226001549 78 296 2.0 7.0 0.00 0.00 0.00 25 1010.7
20240226000050 79 334 2.0 7.0 0.00 0.00 0.00 24 1010.7
20240225234551 80 304 1.0 4.0 0.00 0.00 0.00 22 1010.5
20240225233046 81 323 3.0 5.0 0.00 0.00 0.00 21 1010.5
20240225231548 81 326 4.0 6.0 0.00 0.00 0.00 21 1010.5
20240225230043 82 303 1.0 5.0 0.00 0.00 0.00 21 1010.5
20240225224556 82 320 2.0 7.0 0.00 0.00 0.00 20 1010.5
20240225223101 82 328 2.0 7.0 0.00 0.00 0.00 20 1010.6
20240225221541 82 293 3.0 8.0 0.00 0.00 0.00 20 1010.7
20240225220037 82 318 2.0 5.0 0.00 0.00 0.00 20 1011.0
20240225214637 82 295 2.0 8.0 0.00 0.00 0.00 20 1011.1
20240225213045 85 314 1.0 5.0 0.00 0.00 0.00 19 1011.2
20240225211530 84 261 1.0 3.0 0.00 0.00 0.00 19 1011.5
20240225210033 83 324 3.0 5.0 0.00 0.00 0.00 20 1011.8
20240225204524 83 319 4.0 7.0 0.00 0.00 0.00 21 1012.1
20240225203037 84 254 0.0 4.0 0.00 0.00 0.00 19 1012.2
20240225201519 84 301 1.0 4.0 0.00 0.00 0.00 19 1012.4
20240225200034 83 130 0.0 2.0 0.00 0.00 0.00 18 1012.6
20240225194515 81 111 1.0 3.0 0.00 0.00 0.00 19 1013.1
20240225193133 81 278 1.0 4.0 0.00 0.00 0.00 19 1013.5
20240225191506 79 276 0.0 4.0 0.00 0.00 0.00 19 1013.9
20240225190002 79 316 0.0 2.0 0.00 0.00 0.00 19 1014.0
20240225184500 79 115 1.0 4.0 0.00 0.00 0.00 20 1014.2
20240225183115 77 342 0.0 2.0 0.00 0.00 0.00 22 1014.3
20240225181555 75 269 0.0 1.0 0.00 0.00 0.00 24 1014.7
20240225180051 74 242 0.0 0.0 0.00 0.00 0.00 28 1015.0
20240225174548 73 261 0.0 1.0 0.00 0.00 0.00 29 1015.2
20240225173044 70 248 0.0 1.0 0.00 0.00 0.00 30 1015.4
20240225171540 69 250 0.0 2.0 0.00 0.00 0.00 33 1015.5
20240225170037 67 245 1.0 2.0 0.00 0.00 0.00 39 1015.5
20240225164535 67 286 0.0 2.0 0.00 0.00 0.00 40 1015.4
20240225163034 67 218 0.0 1.0 0.00 0.00 0.00 38 1015.3
20240225161530 66 105 0.0 0.0 0.00 0.00 0.00 42 1015.2
20240225160025 64 104 0.0 0.0 0.00 0.00 0.00 43 1015.0
20240225154522 63 104 0.0 0.0 0.00 0.00 0.00 44 1015.1
20240225153020 60 104 0.0 0.0 0.00 0.00 0.00 48 1015.2
20240225151514 59 104 0.0 0.0 0.00 0.00 0.00 49 1015.0
20240225150013 58 104 0.0 0.0 0.00 0.00 0.00 48 1014.8
20240225144510 57 104 0.0 0.0 0.00 0.00 0.00 51 1014.8
20240225143015 53 104 0.0 0.0 0.00 0.00 0.00 61 1014.9
20240225141511 52 104 0.0 0.0 0.00 0.00 0.00 60 1014.6